sensor_id;sensor_type;location;lat;lon;timestamp;pressure;altitude;pressure_sealevel;temperature;humidity
46718;BME280;32448;44.960;-0.698;2023-05-15T00:02:21;101797.53;;;12.95;100.00
46718;BME280;32448;44.960;-0.698;2023-05-15T00:04:48;101794.03;;;12.94;100.00
46718;BME280;32448;44.960;-0.698;2023-05-15T00:07:16;101794.88;;;12.93;100.00
46718;BME280;32448;44.960;-0.698;2023-05-15T00:09:43;101787.75;;;12.88;100.00
46718;BME280;32448;44.960;-0.698;2023-05-15T00:12:10;101789.38;;;12.83;100.00
46718;BME280;32448;44.960;-0.698;2023-05-15T00:14:37;101784.97;;;12.82;100.00
46718;BME280;32448;44.960;-0.698;2023-05-15T00:17:05;101784.88;;;12.77;100.00
46718;BME280;32448;44.960;-0.698;2023-05-15T00:19:33;101781.38;;;12.76;100.00
46718;BME280;32448;44.960;-0.698;2023-05-15T00:22:00;101776.22;;;12.80;100.00
46718;BME280;32448;44.960;-0.698;2023-05-15T00:24:27;101771.72;;;12.75;100.00
46718;BME280;32448;44.960;-0.698;2023-05-15T00:26:55;101775.19;;;12.74;100.00
46718;BME280;32448;44.960;-0.698;2023-05-15T00:29:22;101775.19;;;12.74;100.00
46718;BME280;32448;44.960;-0.698;2023-05-15T00:31:49;101766.47;;;12.75;100.00
46718;BME280;32448;44.960;-0.698;2023-05-15T00:34:18;101763.06;;;12.78;100.00
46718;BME280;32448;44.960;-0.698;2023-05-15T00:36:45;101763.06;;;12.78;100.00
46718;BME280;32448;44.960;-0.698;2023-05-15T00:39:12;101763.97;;;12.80;100.00
46718;BME280;32448;44.960;-0.698;2023-05-15T00:41:39;101763.06;;;12.78;100.00
46718;BME280;32448;44.960;-0.698;2023-05-15T00:44:06;101758.69;;;12.79;100.00
46718;BME280;32448;44.960;-0.698;2023-05-15T00:46:35;101759.44;;;12.74;100.00
46718;BME280;32448;44.960;-0.698;2023-05-15T00:49:04;101751.63;;;12.76;100.00
46718;BME280;32448;44.960;-0.698;2023-05-15T00:51:32;101747.25;;;12.76;100.00
46718;BME280;32448;44.960;-0.698;2023-05-15T00:54:01;101757.63;;;12.72;100.00
46718;BME280;32448;44.960;-0.698;2023-05-15T00:56:28;101747.91;;;12.66;100.00
46718;BME280;32448;44.960;-0.698;2023-05-15T00:58:57;101746.03;;;12.62;100.00
46718;BME280;32448;44.960;-0.698;2023-05-15T01:01:25;101744.25;;;12.61;100.00
46718;BME280;32448;44.960;-0.698;2023-05-15T01:03:53;101748.41;;;12.52;100.00
46718;BME280;32448;44.960;-0.698;2023-05-15T01:06:20;101744.94;;;12.53;100.00
46718;BME280;32448;44.960;-0.698;2023-05-15T01:08:48;101740.44;;;12.47;100.00
46718;BME280;32448;44.960;-0.698;2023-05-15T01:11:16;101743.91;;;12.46;100.00
46718;BME280;32448;44.960;-0.698;2023-05-15T01:13:44;101749.06;;;12.43;100.00
46718;BME280;32448;44.960;-0.698;2023-05-15T01:16:11;101745.44;;;12.38;100.00
46718;BME280;32448;44.960;-0.698;2023-05-15T01:18:38;101742.81;;;12.36;100.00
46718;BME280;32448;44.960;-0.698;2023-05-15T01:21:14;101736.53;;;12.31;100.00
46718;BME280;32448;44.960;-0.698;2023-05-15T01:32:07;101734.66;;;12.26;100.00
46718;BME280;32448;44.960;-0.698;2023-05-15T01:34:58;101730.22;;;12.23;100.00
46718;BME280;32448;44.960;-0.698;2023-05-15T01:37:28;101720.47;;;12.18;100.00
46718;BME280;32448;44.960;-0.698;2023-05-15T01:39:58;101716.09;;;12.18;100.00
46718;BME280;32448;44.960;-0.698;2023-05-15T01:42:29;101718.63;;;12.14;100.00
46718;BME280;32448;44.960;-0.698;2023-05-15T01:44:56;101717.75;;;12.13;100.00
46718;BME280;32448;44.960;-0.698;2023-05-15T01:47:48;101718.53;;;12.11;100.00
46718;BME280;32448;44.960;-0.698;2023-05-15T01:50:14;101719.25;;;12.05;100.00
46718;BME280;32448;44.960;-0.698;2023-05-15T01:52:43;101728.78;;;12.01;100.00
46718;BME280;32448;44.960;-0.698;2023-05-15T01:55:13;101719.19;;;12.02;100.00
46718;BME280;32448;44.960;-0.698;2023-05-15T01:57:41;101719.91;;;11.96;100.00
46718;BME280;32448;44.960;-0.698;2023-05-15T02:00:11;101727.75;;;11.96;100.00
46718;BME280;32448;44.960;-0.698;2023-05-15T02:02:39;101732.06;;;11.94;100.00
46718;BME280;32448;44.960;-0.698;2023-05-15T02:05:08;101726.78;;;11.91;100.00
46718;BME280;32448;44.960;-0.698;2023-05-15T02:07:35;101724.94;;;11.89;100.00
46718;BME280;32448;44.960;-0.698;2023-05-15T02:10:02;101717.88;;;11.86;100.00
46718;BME280;32448;44.960;-0.698;2023-05-15T02:12:30;101719.56;;;11.84;100.00
46718;BME280;32448;44.960;-0.698;2023-05-15T02:14:57;101715.19;;;11.83;100.00
46718;BME280;32448;44.960;-0.698;2023-05-15T02:17:25;101716.91;;;11.81;100.00
46718;BME280;32448;44.960;-0.698;2023-05-15T02:19:53;101713.34;;;11.79;100.00
46718;BME280;32448;44.960;-0.698;2023-05-15T02:22:21;101716.81;;;11.78;100.00
46718;BME280;32448;44.960;-0.698;2023-05-15T02:24:48;101722.84;;;11.76;100.00
46718;BME280;32448;44.960;-0.698;2023-05-15T02:35:24;101729.09;;;11.81;100.00
46718;BME280;32448;44.960;-0.698;2023-05-15T02:37:54;101724.75;;;11.81;100.00
46718;BME280;32448;44.960;-0.698;2023-05-15T02:40:23;101728.28;;;11.83;100.00
46718;BME280;32448;44.960;-0.698;2023-05-15T02:42:53;101726.53;;;11.84;100.00
46718;BME280;32448;44.960;-0.698;2023-05-15T02:45:20;101732.72;;;11.86;100.00
46718;BME280;32448;44.960;-0.698;2023-05-15T02:47:49;101729.25;;;11.87;100.00
46718;BME280;32448;44.960;-0.698;2023-05-15T02:50:17;101736.22;;;11.86;100.00
46718;BME280;32448;44.960;-0.698;2023-05-15T02:52:44;101733.75;;;11.91;100.00
46718;BME280;32448;44.960;-0.698;2023-05-15T02:55:11;101735.53;;;11.93;100.00
46718;BME280;32448;44.960;-0.698;2023-05-15T02:57:38;101733.94;;;11.98;100.00
46718;BME280;32448;44.960;-0.698;2023-05-15T03:00:06;101735.66;;;11.98;100.00
46718;BME280;32448;44.960;-0.698;2023-05-15T03:02:36;101731.41;;;12.01;100.00
46718;BME280;32448;44.960;-0.698;2023-05-15T03:05:04;101730.56;;;12.02;100.00
46718;BME280;32448;44.960;-0.698;2023-05-15T03:07:32;101736.69;;;12.03;100.00
46718;BME280;32448;44.960;-0.698;2023-05-15T03:09:59;101735.81;;;12.04;100.00
46718;BME280;32448;44.960;-0.698;2023-05-15T03:12:26;101730.63;;;12.06;100.00
46718;BME280;32448;44.960;-0.698;2023-05-15T03:14:53;101735.91;;;12.07;100.00
46718;BME280;32448;44.960;-0.698;2023-05-15T03:17:20;101727.94;;;12.02;100.00
46718;BME280;32448;44.960;-0.698;2023-05-15T03:19:47;101730.63;;;12.06;100.00
46718;BME280;32448;44.960;-0.698;2023-05-15T03:22:14;101733.97;;;12.00;100.00
46718;BME280;32448;44.960;-0.698;2023-05-15T03:24:42;101726.06;;;11.98;100.00
46718;BME280;32448;44.960;-0.698;2023-05-15T03:27:09;101730.38;;;11.96;100.00
46718;BME280;32448;44.960;-0.698;2023-05-15T03:29:37;101735.63;;;11.96;100.00
46718;BME280;32448;44.960;-0.698;2023-05-15T03:32:04;101733.81;;;11.94;100.00
46718;BME280;32448;44.960;-0.698;2023-05-15T03:34:31;101728.56;;;11.94;100.00
46718;BME280;32448;44.960;-0.698;2023-05-15T03:44:00;101737.50;;;12.00;100.00
46718;BME280;32448;44.960;-0.698;2023-05-15T03:46:27;101735.72;;;11.99;100.00
46718;BME280;32448;44.960;-0.698;2023-05-15T03:48:55;101727.06;;;12.02;100.00
46718;BME280;32448;44.960;-0.698;2023-05-15T03:51:22;101725.31;;;12.02;100.00
46718;BME280;32448;44.960;-0.698;2023-05-15T03:53:52;101723.59;;;12.04;100.00
46718;BME280;32448;44.960;-0.698;2023-05-15T03:56:21;101723.69;;;12.08;100.00
46718;BME280;32448;44.960;-0.698;2023-05-15T03:58:48;101716.75;;;12.10;100.00
46718;BME280;32448;44.960;-0.698;2023-05-15T04:01:15;101711.56;;;12.11;100.00
46718;BME280;32448;44.960;-0.698;2023-05-15T04:03:43;101712.50;;;12.13;100.00
46718;BME280;32448;44.960;-0.698;2023-05-15T04:06:10;101711.59;;;12.13;100.00
46718;BME280;32448;44.960;-0.698;2023-05-15T04:08:37;101711.66;;;12.16;100.00
46718;BME280;32448;44.960;-0.698;2023-05-15T04:11:06;101710.84;;;12.18;100.00
46718;BME280;32448;44.960;-0.698;2023-05-15T04:13:33;101708.25;;;12.18;100.00
46718;BME280;32448;44.960;-0.698;2023-05-15T04:16:03;101712.63;;;12.19;100.00
46718;BME280;32448;44.960;-0.698;2023-05-15T04:18:34;101703.03;;;12.20;100.00
46718;BME280;32448;44.960;-0.698;2023-05-15T04:21:01;101703.03;;;12.20;100.00
46718;BME280;32448;44.960;-0.698;2023-05-15T04:23:29;101708.19;;;12.17;100.00
46718;BME280;32448;44.960;-0.698;2023-05-15T04:25:56;101701.19;;;12.16;100.00
46718;BME280;32448;44.960;-0.698;2023-05-15T04:28:23;101709.09;;;12.17;100.00
46718;BME280;32448;44.960;-0.698;2023-05-15T04:30:50;101703.03;;;12.20;100.00
46718;BME280;32448;44.960;-0.698;2023-05-15T04:33:17;101703.97;;;12.22;100.00
46718;BME280;32448;44.960;-0.698;2023-05-15T04:35:45;101704.97;;;12.27;100.00
46718;BME280;32448;44.960;-0.698;2023-05-15T04:38:12;101705.00;;;12.28;100.00
46718;BME280;32448;44.960;-0.698;2023-05-15T04:40:39;101708.59;;;12.32;100.00
46718;BME280;32448;44.960;-0.698;2023-05-15T04:43:06;101705.94;;;12.30;100.00
46718;BME280;32448;44.960;-0.698;2023-05-15T04:45:33;101712.16;;;12.34;100.00
46718;BME280;32448;44.960;-0.698;2023-05-15T04:48:01;101715.75;;;12.39;100.00
46718;BME280;32448;44.960;-0.698;2023-05-15T04:50:28;101713.13;;;12.39;100.00
46718;BME280;32448;44.960;-0.698;2023-05-15T04:52:55;101707.16;;;12.45;100.00
46718;BME280;32448;44.960;-0.698;2023-05-15T04:55:28;101709.81;;;12.46;100.00
46718;BME280;32448;44.960;-0.698;2023-05-15T04:57:59;101709.03;;;12.50;100.00
46718;BME280;32448;44.960;-0.698;2023-05-15T05:00:30;101709.13;;;12.53;100.00
46718;BME280;32448;44.960;-0.698;2023-05-15T05:06:29;101711.13;;;12.65;100.00
46718;BME280;32448;44.960;-0.698;2023-05-15T05:08:56;101699.97;;;12.73;100.00
46718;BME280;32448;44.960;-0.698;2023-05-15T05:11:27;101696.50;;;12.74;100.00
46718;BME280;32448;44.960;-0.698;2023-05-15T05:13:58;101706.19;;;12.77;100.00
46718;BME280;32448;44.960;-0.698;2023-05-15T05:16:26;101706.19;;;12.77;100.00
46718;BME280;32448;44.960;-0.698;2023-05-15T05:18:53;101695.78;;;12.82;100.00
46718;BME280;32448;44.960;-0.698;2023-05-15T05:21:20;101694.91;;;12.83;100.00
46718;BME280;32448;44.960;-0.698;2023-05-15T05:23:48;101701.13;;;12.86;100.00
46718;BME280;32448;44.960;-0.698;2023-05-15T05:26:16;101700.41;;;12.92;100.00
46718;BME280;32448;44.960;-0.698;2023-05-15T05:28:43;101700.41;;;12.92;100.00
46718;BME280;32448;44.960;-0.698;2023-05-15T05:31:10;101707.38;;;12.93;100.00
46718;BME280;32448;44.960;-0.698;2023-05-15T05:33:38;101701.28;;;12.94;100.00
46718;BME280;32448;44.960;-0.698;2023-05-15T05:36:05;101700.56;;;12.99;100.00
46718;BME280;32448;44.960;-0.698;2023-05-15T05:38:33;101698.88;;;13.01;100.00
46718;BME280;32448;44.960;-0.698;2023-05-15T05:44:16;101697.25;;;13.08;100.00
46718;BME280;32448;44.960;-0.698;2023-05-15T05:46:45;101692.94;;;13.11;100.00
46718;BME280;32448;44.960;-0.698;2023-05-15T05:49:23;101690.44;;;13.16;100.00
46718;BME280;32448;44.960;-0.698;2023-05-15T05:51:51;101700.19;;;13.22;100.00
46718;BME280;32448;44.960;-0.698;2023-05-15T05:54:19;101685.41;;;13.25;100.00
46718;BME280;32448;44.960;-0.698;2023-05-15T05:56:46;101684.56;;;13.28;100.00
46718;BME280;32448;44.960;-0.698;2023-05-15T05:59:13;101682.97;;;13.34;100.00
46718;BME280;32448;44.960;-0.698;2023-05-15T06:01:40;101691.81;;;13.39;100.00
46718;BME280;32448;44.960;-0.698;2023-05-15T06:04:08;101686.72;;;13.48;100.00
46718;BME280;32448;44.960;-0.698;2023-05-15T06:06:35;101693.78;;;13.51;100.00
46718;BME280;32448;44.960;-0.698;2023-05-15T06:09:02;101698.25;;;13.55;100.00
46718;BME280;32448;44.960;-0.698;2023-05-15T06:15:18;101690.50;;;13.63;100.00
46718;BME280;32448;44.960;-0.698;2023-05-15T06:17:45;101690.66;;;13.69;100.00
46718;BME280;32448;44.960;-0.698;2023-05-15T06:20:13;101691.59;;;13.74;100.00
46718;BME280;32448;44.960;-0.698;2023-05-15T06:22:41;101686.50;;;13.83;100.00
46718;BME280;32448;44.960;-0.698;2023-05-15T06:25:08;101677.78;;;13.84;100.00
46718;BME280;32448;44.960;-0.698;2023-05-15T06:27:39;101687.56;;;13.91;100.00
46718;BME280;32448;44.960;-0.698;2023-05-15T06:30:07;101654.94;;;13.81;100.00
46718;BME280;32448;44.960;-0.698;2023-05-15T06:32:34;101684.25;;;14.04;100.00
46718;BME280;32448;44.960;-0.698;2023-05-15T06:35:02;101683.50;;;14.10;100.00
46718;BME280;32448;44.960;-0.698;2023-05-15T06:37:29;101679.28;;;14.19;100.00
46718;BME280;32448;44.960;-0.698;2023-05-15T06:39:56;101678.53;;;14.28;100.00
46718;BME280;32448;44.960;-0.698;2023-05-15T06:42:23;101684.13;;;14.45;100.00
46718;BME280;32448;44.960;-0.698;2023-05-15T06:44:51;101672.75;;;14.49;100.00
46718;BME280;32448;44.960;-0.698;2023-05-15T06:47:22;101672.91;;;14.58;100.00
46718;BME280;32448;44.960;-0.698;2023-05-15T06:50:07;101674.91;;;14.74;100.00
46718;BME280;32448;44.960;-0.698;2023-05-15T06:52:34;101682.00;;;14.81;100.00
46718;BME280;32448;44.960;-0.698;2023-05-15T06:55:05;101676.00;;;14.91;100.00
46718;BME280;32448;44.960;-0.698;2023-05-15T06:58:05;101684.06;;;15.04;100.00
46718;BME280;32448;44.960;-0.698;2023-05-15T07:00:37;101679.72;;;15.06;100.00
46718;BME280;32448;44.960;-0.698;2023-05-15T07:03:09;101678.00;;;15.08;100.00
46718;BME280;32448;44.960;-0.698;2023-05-15T07:05:37;101677.19;;;15.12;100.00
46718;BME280;32448;44.960;-0.698;2023-05-15T07:08:04;101669.31;;;15.16;100.00
46718;BME280;32448;44.960;-0.698;2023-05-15T07:10:31;101663.28;;;15.23;100.00
46718;BME280;32448;44.960;-0.698;2023-05-15T07:12:59;101672.19;;;15.35;100.00
46718;BME280;32448;44.960;-0.698;2023-05-15T07:15:27;101660.03;;;15.47;100.00
46718;BME280;32448;44.960;-0.698;2023-05-15T07:17:59;101659.22;;;15.53;100.00
46718;BME280;32448;44.960;-0.698;2023-05-15T07:20:30;101659.34;;;15.62;100.00
46718;BME280;32448;44.960;-0.698;2023-05-15T07:23:01;101654.97;;;15.64;100.00
46718;BME280;32448;44.960;-0.698;2023-05-15T07:25:29;101650.63;;;15.69;100.00
46718;BME280;32448;44.960;-0.698;2023-05-15T07:42:59;101649.13;;;15.95;100.00
46718;BME280;32448;44.960;-0.698;2023-05-15T07:45:27;101648.22;;;15.90;100.00
46718;BME280;32448;44.960;-0.698;2023-05-15T07:47:55;101645.63;;;15.96;100.00
46718;BME280;32448;44.960;-0.698;2023-05-15T07:50:24;101643.03;;;16.04;100.00
46718;BME280;32448;44.960;-0.698;2023-05-15T07:52:51;101639.59;;;16.10;100.00
46718;BME280;32448;44.960;-0.698;2023-05-15T07:55:28;101631.81;;;16.28;100.00
46718;BME280;32448;44.960;-0.698;2023-05-15T07:57:56;101632.78;;;16.41;100.00
46718;BME280;32448;44.960;-0.698;2023-05-15T08:00:24;101640.75;;;16.48;100.00
46718;BME280;32448;44.960;-0.698;2023-05-15T08:02:52;101631.94;;;16.46;100.00
46718;BME280;32448;44.960;-0.698;2023-05-15T08:05:20;101645.16;;;16.51;100.00
46718;BME280;32448;44.960;-0.698;2023-05-15T08:07:47;101642.50;;;16.46;100.00
46718;BME280;32448;44.960;-0.698;2023-05-15T08:10:14;101639.84;;;16.46;100.00
46718;BME280;32448;44.960;-0.698;2023-05-15T08:12:41;101638.97;;;16.47;100.00
46718;BME280;32448;44.960;-0.698;2023-05-15T08:15:13;101640.72;;;16.42;100.00
46718;BME280;32448;44.960;-0.698;2023-05-15T08:17:40;101641.53;;;16.35;100.00
46718;BME280;32448;44.960;-0.698;2023-05-15T08:20:08;101643.34;;;16.41;100.00
46718;BME280;32448;44.960;-0.698;2023-05-15T08:22:35;101645.06;;;16.32;100.00
46718;BME280;32448;44.960;-0.698;2023-05-15T08:25:03;101643.25;;;16.27;100.00
46718;BME280;32448;44.960;-0.698;2023-05-15T08:27:31;101644.13;;;16.27;100.00
46718;BME280;32448;44.960;-0.698;2023-05-15T08:29:59;101633.56;;;16.26;100.00
46718;BME280;32448;44.960;-0.698;2023-05-15T08:32:41;101643.22;;;16.25;100.00
46718;BME280;32448;44.960;-0.698;2023-05-15T08:35:12;101641.53;;;16.33;100.00
46718;BME280;32448;44.960;-0.698;2023-05-15T08:37:42;101631.06;;;16.46;100.00
46718;BME280;32448;44.960;-0.698;2023-05-15T08:40:10;101638.09;;;16.44;100.00
46718;BME280;32448;44.960;-0.698;2023-05-15T08:42:52;101635.50;;;16.51;100.00
46718;BME280;32448;44.960;-0.698;2023-05-15T08:45:22;101626.69;;;16.51;100.00
46718;BME280;32448;44.960;-0.698;2023-05-15T08:47:57;101625.78;;;16.49;100.00
46718;BME280;32448;44.960;-0.698;2023-05-15T08:50:25;101624.19;;;16.64;100.00
46718;BME280;32448;44.960;-0.698;2023-05-15T08:52:52;101617.22;;;16.83;100.00
46718;BME280;32448;44.960;-0.698;2023-05-15T08:55:25;101629.53;;;16.83;100.00
46718;BME280;32448;44.960;-0.698;2023-05-15T08:57:52;101626.91;;;16.78;100.00
46718;BME280;32448;44.960;-0.698;2023-05-15T09:00:21;101623.41;;;16.84;100.00
46718;BME280;32448;44.960;-0.698;2023-05-15T09:02:52;101623.47;;;17.02;100.00
46718;BME280;32448;44.960;-0.698;2023-05-15T09:05:23;101626.19;;;17.20;100.00
46718;BME280;32448;44.960;-0.698;2023-05-15T09:07:52;101620.91;;;17.19;100.00
46718;BME280;32448;44.960;-0.698;2023-05-15T09:10:40;101623.56;;;17.26;100.00
46718;BME280;32448;44.960;-0.698;2023-05-15T09:13:16;101631.50;;;17.22;100.00
46718;BME280;32448;44.960;-0.698;2023-05-15T09:15:44;101629.72;;;17.21;100.00
46718;BME280;32448;44.960;-0.698;2023-05-15T09:18:13;101619.13;;;17.15;100.00
46718;BME280;32448;44.960;-0.698;2023-05-15T09:20:41;101624.41;;;17.12;100.00
46718;BME280;32448;44.960;-0.698;2023-05-15T09:23:23;101619.06;;;17.04;100.00
46718;BME280;32448;44.960;-0.698;2023-05-15T09:25:51;101625.31;;;17.21;100.00
46718;BME280;32448;44.960;-0.698;2023-05-15T09:28:27;101617.47;;;17.44;100.00
46718;BME280;32448;44.960;-0.698;2023-05-15T09:31:00;101610.50;;;17.89;100.00
46718;BME280;32448;44.960;-0.698;2023-05-15T09:33:35;101618.41;;;18.27;100.00
46718;BME280;32448;44.960;-0.698;2023-05-15T09:36:03;101616.66;;;18.29;100.00
46718;BME280;32448;44.960;-0.698;2023-05-15T09:38:49;101614.88;;;18.44;100.00
46718;BME280;32448;44.960;-0.698;2023-05-15T09:41:23;101605.13;;;18.77;100.00
46718;BME280;32448;44.960;-0.698;2023-05-15T09:43:51;101612.09;;;18.95;100.00
46718;BME280;32448;44.960;-0.698;2023-05-15T09:46:21;101603.34;;;18.77;100.00
46718;BME280;32448;44.960;-0.698;2023-05-15T09:48:49;101601.59;;;18.73;100.00
46718;BME280;32448;44.960;-0.698;2023-05-15T09:51:20;101605.13;;;18.74;100.00
46718;BME280;32448;44.960;-0.698;2023-05-15T09:53:48;101610.28;;;19.07;100.00
46718;BME280;32448;44.960;-0.698;2023-05-15T09:56:17;101608.59;;;18.86;100.00
46718;BME280;32448;44.960;-0.698;2023-05-15T09:58:53;101606.75;;;19.10;100.00
46718;BME280;32448;44.960;-0.698;2023-05-15T10:01:21;101609.44;;;18.96;100.00
46718;BME280;32448;44.960;-0.698;2023-05-15T10:04:01;101613.88;;;18.94;100.00
46718;BME280;32448;44.960;-0.698;2023-05-15T10:06:51;101602.34;;;19.06;100.00
46718;BME280;32448;44.960;-0.698;2023-05-15T10:09:19;101588.03;;;19.34;100.00
46718;BME280;32448;44.960;-0.698;2023-05-15T10:11:49;101585.25;;;19.57;100.00
46718;BME280;32448;44.960;-0.698;2023-05-15T10:14:16;101599.59;;;19.22;100.00
46718;BME280;32448;44.960;-0.698;2023-05-15T10:16:45;101590.75;;;19.23;100.00
46718;BME280;32448;44.960;-0.698;2023-05-15T10:19:12;101591.53;;;19.42;100.00
46718;BME280;32448;44.960;-0.698;2023-05-15T10:21:40;101589.78;;;19.41;100.00
46718;BME280;32448;44.960;-0.698;2023-05-15T10:24:12;101585.44;;;19.30;100.00
46718;BME280;32448;44.960;-0.698;2023-05-15T10:26:41;101580.16;;;19.22;100.00
46718;BME280;32448;44.960;-0.698;2023-05-15T10:29:15;101587.16;;;19.34;100.00
46718;BME280;32448;44.960;-0.698;2023-05-15T10:31:44;101582.50;;;19.72;100.00
46718;BME280;32448;44.960;-0.698;2023-05-15T10:34:12;101572.50;;;20.05;100.00
46718;BME280;32448;44.960;-0.698;2023-05-15T10:36:39;101567.38;;;19.86;100.00
46718;BME280;32448;44.960;-0.698;2023-05-15T10:39:07;101573.47;;;19.99;100.00
46718;BME280;32448;44.960;-0.698;2023-05-15T10:41:38;101570.84;;;19.94;100.00
46718;BME280;32448;44.960;-0.698;2023-05-15T10:44:06;101569.31;;;19.65;100.00
46718;BME280;32448;44.960;-0.698;2023-05-15T10:46:34;101579.13;;;19.52;100.00
46718;BME280;32448;44.960;-0.698;2023-05-15T10:49:03;101569.22;;;19.77;100.00
46718;BME280;32448;44.960;-0.698;2023-05-15T10:51:31;101573.50;;;19.90;100.00
46718;BME280;32448;44.960;-0.698;2023-05-15T10:54:00;101572.50;;;20.05;100.00
46718;BME280;32448;44.960;-0.698;2023-05-15T10:56:31;101575.28;;;19.89;100.00
46718;BME280;32448;44.960;-0.698;2023-05-15T10:59:06;101570.84;;;19.93;100.00
46718;BME280;32448;44.960;-0.698;2023-05-15T11:01:38;101569.94;;;19.97;100.00
46718;BME280;32448;44.960;-0.698;2023-05-15T11:04:16;101570.44;;;20.37;100.00
46718;BME280;32448;44.960;-0.698;2023-05-15T11:06:45;101564.72;;;20.72;100.00
46718;BME280;32448;44.960;-0.698;2023-05-15T11:14:19;101550.59;;;20.70;100.00
46718;BME280;32448;44.960;-0.698;2023-05-15T11:24:48;101554.38;;;20.51;100.00
46718;BME280;32448;44.960;-0.698;2023-05-15T11:27:17;101558.84;;;20.46;100.00
46718;BME280;32448;44.960;-0.698;2023-05-15T11:35:17;101558.34;;;20.06;100.00
46718;BME280;32448;44.960;-0.698;2023-05-15T11:37:46;101551.28;;;20.02;100.00
46718;BME280;32448;44.960;-0.698;2023-05-15T11:40:18;101545.31;;;19.80;100.00
46718;BME280;32448;44.960;-0.698;2023-05-15T11:43:03;101551.41;;;19.89;100.00
46718;BME280;32448;44.960;-0.698;2023-05-15T11:45:33;101554.16;;;19.79;100.00
46718;BME280;32448;44.960;-0.698;2023-05-15T11:48:01;101549.69;;;19.85;100.00
46718;BME280;32448;44.960;-0.698;2023-05-15T11:50:29;101540.88;;;19.82;100.00
46718;BME280;32448;44.960;-0.698;2023-05-15T11:53:00;101542.59;;;19.87;100.00
46718;BME280;32448;44.960;-0.698;2023-05-15T11:55:27;101548.75;;;19.89;100.00
46718;BME280;32448;44.960;-0.698;2023-05-15T11:57:56;101537.34;;;19.81;100.00
46718;BME280;32448;44.960;-0.698;2023-05-15T12:00:23;101552.34;;;19.84;100.00
46718;BME280;32448;44.960;-0.698;2023-05-15T12:02:51;101551.56;;;19.74;100.00
46718;BME280;32448;44.960;-0.698;2023-05-15T12:05:18;101545.16;;;19.96;100.00
46718;BME280;32448;44.960;-0.698;2023-05-15T12:07:45;101537.22;;;19.96;100.00
46718;BME280;32448;44.960;-0.698;2023-05-15T12:10:13;101547.81;;;19.96;100.00
46718;BME280;32448;44.960;-0.698;2023-05-15T12:12:42;101549.56;;;19.99;100.00
46718;BME280;32448;44.960;-0.698;2023-05-15T12:15:09;101547.66;;;20.13;100.00
46718;BME280;32448;44.960;-0.698;2023-05-15T12:17:37;101549.28;;;20.25;100.00
46718;BME280;32448;44.960;-0.698;2023-05-15T12:20:06;101545.06;;;20.07;100.00
46718;BME280;32448;44.960;-0.698;2023-05-15T12:22:35;101540.78;;;19.91;100.00
46718;BME280;32448;44.960;-0.698;2023-05-15T12:25:03;101532.72;;;20.02;100.00
46718;BME280;32448;44.960;-0.698;2023-05-15T12:27:31;101538.03;;;20.00;100.00
46718;BME280;32448;44.960;-0.698;2023-05-15T12:30:03;101540.06;;;19.72;100.00
46718;BME280;32448;44.960;-0.698;2023-05-15T12:32:33;101533.00;;;19.73;100.00
46718;BME280;32448;44.960;-0.698;2023-05-15T12:35:00;101533.84;;;19.76;100.00
46718;BME280;32448;44.960;-0.698;2023-05-15T12:37:30;101537.47;;;19.66;100.00
46718;BME280;32448;44.960;-0.698;2023-05-15T12:40:04;101535.81;;;19.53;100.00
46718;BME280;32448;44.960;-0.698;2023-05-15T12:42:49;101553.41;;;19.66;100.00
46718;BME280;32448;44.960;-0.698;2023-05-15T12:45:26;101536.56;;;19.67;100.00
46718;BME280;32448;44.960;-0.698;2023-05-15T12:47:53;101526.59;;;19.96;100.00
46718;BME280;32448;44.960;-0.698;2023-05-15T12:50:24;101530.81;;;20.17;100.00
46718;BME280;32448;44.960;-0.698;2023-05-15T12:52:57;101532.69;;;20.05;100.00
46718;BME280;32448;44.960;-0.698;2023-05-15T12:55:28;101538.78;;;20.14;100.00
46718;BME280;32448;44.960;-0.698;2023-05-15T12:58:01;101523.56;;;20.31;100.00
46718;BME280;32448;44.960;-0.698;2023-05-15T13:00:30;101532.41;;;20.35;100.00
46718;BME280;32448;44.960;-0.698;2023-05-15T13:03:01;101521.47;;;20.61;100.00
46718;BME280;32448;44.960;-0.698;2023-05-15T13:05:34;101523.00;;;20.80;100.00
46718;BME280;32448;44.960;-0.698;2023-05-15T13:08:03;101529.81;;;20.99;100.00
46718;BME280;32448;44.960;-0.698;2023-05-15T13:10:35;101531.84;;;20.81;100.00
46718;BME280;32448;44.960;-0.698;2023-05-15T13:13:04;101536.78;;;20.39;100.00
46718;BME280;32448;44.960;-0.698;2023-05-15T13:18:01;101529.78;;;20.29;100.00
46718;BME280;32448;44.960;-0.698;2023-05-15T13:20:36;101528.34;;;19.99;100.00
46718;BME280;32448;44.960;-0.698;2023-05-15T13:23:03;101532.53;;;20.21;100.00
46718;BME280;32448;44.960;-0.698;2023-05-15T13:25:30;101537.09;;;20.07;100.00
46718;BME280;32448;44.960;-0.698;2023-05-15T13:27:58;101545.06;;;20.06;100.00
46718;BME280;32448;44.960;-0.698;2023-05-15T13:33:23;101532.22;;;19.58;100.00
46718;BME280;32448;44.960;-0.698;2023-05-15T13:35:52;101536.44;;;19.84;100.00
46718;BME280;32448;44.960;-0.698;2023-05-15T13:38:24;101523.97;;;19.90;100.00
46718;BME280;32448;44.960;-0.698;2023-05-15T13:40:52;101538.22;;;19.80;100.00
46718;BME280;32448;44.960;-0.698;2023-05-15T13:43:23;101533.81;;;19.79;100.00
46718;BME280;32448;44.960;-0.698;2023-05-15T13:46:02;101532.91;;;19.82;100.00
46718;BME280;32448;44.960;-0.698;2023-05-15T13:51:59;101533.03;;;19.67;100.00
46718;BME280;32448;44.960;-0.698;2023-05-15T13:54:32;101533.88;;;19.70;100.00
46718;BME280;32448;44.960;-0.698;2023-05-15T13:57:00;101539.00;;;19.90;100.00
46718;BME280;32448;44.960;-0.698;2023-05-15T13:59:28;101531.13;;;19.84;100.00